createdAt,value
2019-05-01T00:00:36.529Z,101867.20
2019-05-01T00:03:29.239Z,101878.09
2019-05-01T00:05:59.938Z,101878.09
2019-05-01T00:08:29.977Z,101868.14
2019-05-01T00:11:00.024Z,101865.31
2019-05-01T00:13:31.074Z,101868.67
2019-05-01T00:16:01.166Z,101866.86
2019-05-01T00:18:31.294Z,101867.12
2019-05-01T00:21:01.603Z,101862.34
2019-05-01T00:23:31.700Z,101858.19
2019-05-01T00:26:01.794Z,101852.43
2019-05-01T00:28:31.995Z,101851.72
2019-05-01T00:31:02.115Z,101846.67
2019-05-01T00:33:32.153Z,101836.51
2019-05-01T00:36:02.199Z,101835.30
2019-05-01T00:38:32.260Z,101841.06
2019-05-01T00:41:02.279Z,101833.16
2019-05-01T00:43:32.334Z,101835.53
2019-05-01T00:46:02.376Z,101822.27
2019-05-01T00:48:32.417Z,101836.15
2019-05-01T00:51:02.549Z,101817.56
2019-05-01T00:53:32.571Z,101824.29
2019-05-01T00:56:10.739Z,101813.50
2019-05-01T00:58:51.783Z,101805.44
2019-05-01T01:01:43.833Z,101805.44
2019-05-01T01:04:16.232Z,101797.95
2019-05-01T01:06:46.307Z,101802.99
2019-05-01T01:09:17.319Z,101800.97
2019-05-01T01:11:47.378Z,101795.72
2019-05-01T01:14:17.418Z,101798.58
2019-05-01T01:16:47.481Z,101798.58
2019-05-01T01:19:17.502Z,101788.70
2019-05-01T01:21:47.554Z,101786.44
2019-05-01T01:24:17.598Z,101785.25
2019-05-01T01:26:47.684Z,101783.50
2019-05-01T01:29:17.734Z,101776.17
2019-05-01T01:31:47.805Z,101776.17
2019-05-01T01:34:17.841Z,101783.39
2019-05-01T01:36:47.958Z,101789.08
2019-05-01T01:39:18.030Z,101777.25
2019-05-01T01:41:48.207Z,101775.20
2019-05-01T01:44:24.293Z,101776.72
2019-05-01T01:46:55.137Z,101781.04
2019-05-01T01:49:25.164Z,101772.03
2019-05-01T01:51:55.200Z,101771.89
2019-05-01T01:54:25.446Z,101776.86
2019-05-01T01:56:55.499Z,101768.23
2019-05-01T01:59:25.547Z,101774.21
2019-05-01T02:02:11.067Z,101759.27
2019-05-01T02:04:55.695Z,101772.16
2019-05-01T02:07:25.816Z,101772.16
2019-05-01T02:09:55.878Z,101763.02
2019-05-01T02:12:25.921Z,101757.82
2019-05-01T02:14:56.104Z,101749.97
2019-05-01T02:17:26.138Z,101759.34
2019-05-01T02:19:56.185Z,101759.20
2019-05-01T02:22:26.260Z,101763.38
2019-05-01T02:24:56.300Z,101763.98
2019-05-01T02:27:36.241Z,101755.27
2019-05-01T02:30:08.340Z,101747.77
2019-05-01T02:32:38.438Z,101747.41
2019-05-01T02:35:08.481Z,101742.70
2019-05-01T02:37:38.547Z,101747.84
2019-05-01T02:40:41.785Z,101738.81
2019-05-01T02:43:14.424Z,101737.38
2019-05-01T02:45:44.591Z,101734.78
2019-05-01T02:48:15.365Z,101740.09
2019-05-01T02:50:45.476Z,101742.89
2019-05-01T02:53:15.666Z,101745.19
2019-05-01T02:55:50.198Z,101744.83
2019-05-01T02:58:20.259Z,101735.56
2019-05-01T03:00:50.319Z,101727.03
2019-05-01T03:03:20.360Z,101725.05
2019-05-01T03:05:50.430Z,101723.03
2019-05-01T03:08:20.472Z,101720.02
2019-05-01T03:10:50.524Z,101724.44
2019-05-01T03:13:20.553Z,101730.42
2019-05-01T03:15:50.632Z,101727.35
2019-05-01T03:18:26.243Z,101726.20
2019-05-01T03:21:04.507Z,101731.01
2019-05-01T03:23:41.428Z,101730.16
2019-05-01T03:26:11.498Z,101730.19
2019-05-01T03:28:41.541Z,101732.23
2019-05-01T03:31:11.600Z,101734.16
2019-05-01T03:33:41.662Z,101728.84
2019-05-01T03:36:11.705Z,101722.38
2019-05-01T03:38:41.731Z,101719.84
2019-05-01T03:41:11.838Z,101712.02
2019-05-01T03:43:41.920Z,101717.60
2019-05-01T03:46:11.986Z,101720.84
2019-05-01T03:48:42.004Z,101718.67
2019-05-01T03:51:12.066Z,101710.41
2019-05-01T03:53:42.147Z,101710.41
2019-05-01T03:56:12.201Z,101713.06
2019-05-01T03:58:42.235Z,101721.89
2019-05-01T04:01:46.123Z,101721.77
2019-05-01T04:04:19.217Z,101721.77
2019-05-01T04:06:49.266Z,101727.45
2019-05-01T04:09:19.296Z,101729.81
2019-05-01T04:11:49.339Z,101727.98
2019-05-01T04:14:19.415Z,101724.61
2019-05-01T04:16:53.027Z,101722.75
2019-05-01T04:19:23.089Z,101717.97
2019-05-01T04:21:58.474Z,101717.91
2019-05-01T04:24:28.786Z,101712.39
2019-05-01T04:26:58.917Z,101707.99
2019-05-01T04:29:34.960Z,101711.57
2019-05-01T04:32:16.993Z,101713.36
2019-05-01T04:35:09.023Z,101712.72
2019-05-01T04:37:39.050Z,101704.61
2019-05-01T04:40:09.107Z,101713.72
2019-05-01T04:42:40.200Z,101715.74
2019-05-01T04:45:10.278Z,101707.33
2019-05-01T04:47:40.324Z,101714.39
2019-05-01T04:50:10.372Z,101706.22
2019-05-01T04:52:40.577Z,101712.77
2019-05-01T04:55:10.631Z,101709.42
2019-05-01T04:57:40.688Z,101707.02
2019-05-01T05:00:11.230Z,101695.93
2019-05-01T05:02:46.208Z,101695.93
2019-05-01T05:05:16.260Z,101707.29
2019-05-01T05:07:46.410Z,101715.95
2019-05-01T05:10:16.479Z,101708.29
2019-05-01T05:12:54.414Z,101708.64
2019-05-01T05:15:55.568Z,101702.72
2019-05-01T05:18:25.613Z,101711.77
2019-05-01T05:20:55.682Z,101711.62
2019-05-01T05:23:25.714Z,101712.39
2019-05-01T05:25:55.806Z,101712.27
2019-05-01T05:28:26.322Z,101706.17
2019-05-01T05:30:56.385Z,101699.29
2019-05-01T05:33:26.723Z,101703.75
2019-05-01T05:35:56.766Z,101710.59
2019-05-01T05:38:44.252Z,101708.28
2019-05-01T05:41:14.398Z,101706.53
2019-05-01T05:43:45.405Z,101713.44
2019-05-01T05:46:15.440Z,101715.66
2019-05-01T05:48:45.495Z,101717.66
2019-05-01T05:51:43.841Z,101706.22
2019-05-01T05:54:32.832Z,101704.97
2019-05-01T05:57:10.388Z,101711.80
2019-05-01T05:59:42.992Z,101712.27
2019-05-01T06:02:29.578Z,101702.95
2019-05-01T06:05:22.366Z,101716.88
2019-05-01T06:08:23.286Z,101721.91
2019-05-01T06:11:10.694Z,101720.94
2019-05-01T06:13:58.981Z,101715.30
2019-05-01T06:16:51.998Z,101714.59
2019-05-01T06:19:27.987Z,101724.14
2019-05-01T06:22:29.048Z,101717.23
2019-05-01T06:25:21.187Z,101727.09
2019-05-01T06:27:49.263Z,101727.95
2019-05-01T06:30:17.560Z,101713.08
2019-05-01T06:32:47.711Z,101712.90
2019-05-01T06:35:17.766Z,101722.14
2019-05-01T06:38:02.716Z,101722.06
2019-05-01T06:40:43.438Z,101728.07
2019-05-01T06:43:32.836Z,101730.48
2019-05-01T06:46:39.841Z,101738.28
2019-05-01T06:49:24.103Z,101741.55
2019-05-01T06:51:56.731Z,101742.44
2019-05-01T06:54:26.758Z,101743.30
2019-05-01T06:56:56.816Z,101741.09
2019-05-01T06:59:31.391Z,101742.36
2019-05-01T07:02:00.244Z,101734.31
2019-05-01T07:04:32.284Z,101732.07
2019-05-01T07:07:06.742Z,101735.02
2019-05-01T07:09:35.166Z,101732.84
2019-05-01T07:12:07.485Z,101732.84
2019-05-01T07:14:37.515Z,101735.23
2019-05-01T07:17:08.951Z,101739.58
2019-05-01T07:19:56.914Z,101739.58
2019-05-01T07:22:26.986Z,101736.22
2019-05-01T07:24:58.942Z,101739.53
2019-05-01T07:27:29.783Z,101739.53
2019-05-01T07:30:04.967Z,101731.58
2019-05-01T07:32:36.478Z,101734.47
2019-05-01T07:35:06.771Z,101733.41
2019-05-01T07:37:36.823Z,101728.21
2019-05-01T07:40:06.859Z,101735.72
2019-05-01T07:42:39.316Z,101738.83
2019-05-01T07:45:28.280Z,101733.27
2019-05-01T07:48:01.048Z,101744.06
2019-05-01T07:50:32.620Z,101730.81
2019-05-01T07:53:01.976Z,101745.33
2019-05-01T07:55:38.033Z,101742.42
2019-05-01T07:58:10.307Z,101741.06
2019-05-01T08:00:48.806Z,101745.53
2019-05-01T08:03:18.855Z,101743.28
2019-05-01T08:05:48.898Z,101742.86
2019-05-01T08:08:18.968Z,101746.97
2019-05-01T08:10:49.007Z,101745.70
2019-05-01T08:13:19.078Z,101747.00
2019-05-01T08:15:49.106Z,101742.59
2019-05-01T08:18:38.168Z,101746.14
2019-05-01T08:21:21.265Z,101752.39
2019-05-01T08:23:49.998Z,101750.47
2019-05-01T08:26:20.023Z,101753.47
2019-05-01T08:29:18.078Z,101750.67
2019-05-01T08:32:07.046Z,101752.09
2019-05-01T08:34:48.462Z,101743.66
2019-05-01T08:37:09.362Z,101742.91
2019-05-01T08:39:39.684Z,101755.02
2019-05-01T08:42:11.094Z,101753.77
2019-05-01T08:44:53.525Z,101750.31
2019-05-01T08:47:30.602Z,101751.58
2019-05-01T08:50:19.998Z,101756.48
2019-05-01T08:52:49.643Z,101763.18
2019-05-01T08:55:19.721Z,101761.34
2019-05-01T08:57:49.796Z,101758.31
2019-05-01T09:00:19.843Z,101763.83
2019-05-01T09:02:49.874Z,101766.30
2019-05-01T09:05:28.866Z,101764.25
2019-05-01T09:07:56.130Z,101759.23
2019-05-01T09:10:23.411Z,101754.23
2019-05-01T09:12:54.418Z,101757.83
2019-05-01T09:15:24.461Z,101754.70
2019-05-01T09:17:54.490Z,101746.57
2019-05-01T09:20:24.607Z,101749.48
2019-05-01T09:22:54.783Z,101749.88
2019-05-01T09:25:35.321Z,101746.38
2019-05-01T09:28:23.054Z,101747.90
2019-05-01T09:31:01.618Z,101742.20
2019-05-01T09:33:30.923Z,101741.81
2019-05-01T09:36:00.792Z,101741.16
2019-05-01T09:38:30.832Z,101748.05
2019-05-01T09:41:00.870Z,101743.50
2019-05-01T09:43:35.453Z,101743.66
2019-05-01T09:46:02.657Z,101745.48
2019-05-01T09:48:32.782Z,101744.48
2019-05-01T09:51:10.214Z,101745.29
2019-05-01T09:53:52.750Z,101755.19
2019-05-01T09:56:24.462Z,101741.07
2019-05-01T09:58:55.495Z,101738.44
2019-05-01T10:01:31.716Z,101745.98
2019-05-01T10:03:57.303Z,101745.47
2019-05-01T10:06:27.330Z,101752.02
2019-05-01T10:08:57.388Z,101748.70
2019-05-01T10:11:27.444Z,101747.67
2019-05-01T10:13:58.375Z,101757.23
2019-05-01T10:16:29.231Z,101751.19
2019-05-01T10:18:59.271Z,101758.91
2019-05-01T10:21:29.321Z,101756.23
2019-05-01T10:23:59.359Z,101753.21
2019-05-01T10:26:31.076Z,101761.90
2019-05-01T10:29:35.218Z,101763.23
2019-05-01T10:32:10.779Z,101757.88
2019-05-01T10:34:51.194Z,101751.08
2019-05-01T10:37:23.579Z,101754.30
2019-05-01T10:39:54.000Z,101747.48
2019-05-01T10:42:24.723Z,101753.38
2019-05-01T10:44:54.752Z,101744.30
2019-05-01T10:47:24.799Z,101741.31
2019-05-01T10:49:54.828Z,101735.80
2019-05-01T10:52:25.048Z,101732.64
2019-05-01T10:54:55.071Z,101736.41
2019-05-01T10:57:25.203Z,101733.73
2019-05-01T10:59:55.234Z,101734.42
2019-05-01T11:02:25.299Z,101729.03
2019-05-01T11:04:55.376Z,101729.39
2019-05-01T11:07:25.426Z,101737.11
2019-05-01T11:09:55.473Z,101734.59
2019-05-01T11:12:25.536Z,101726.70
2019-05-01T11:14:55.567Z,101725.02
2019-05-01T11:17:25.609Z,101722.34
2019-05-01T11:19:55.717Z,101725.03
2019-05-01T11:22:25.751Z,101723.70
2019-05-01T11:24:55.785Z,101724.02
2019-05-01T11:27:25.839Z,101722.52
2019-05-01T11:29:55.863Z,101715.98
2019-05-01T11:32:47.886Z,101717.98
2019-05-01T11:35:48.994Z,101722.69
2019-05-01T11:38:50.250Z,101717.94
2019-05-01T11:41:30.545Z,101720.78
2019-05-01T11:44:00.887Z,101717.91
2019-05-01T11:46:30.900Z,101722.97
2019-05-01T11:49:00.940Z,101710.86
2019-05-01T11:51:30.997Z,101707.84
2019-05-01T11:54:02.279Z,101713.83
2019-05-01T11:56:33.768Z,101711.31
2019-05-01T11:59:03.907Z,101710.75
2019-05-01T12:01:33.942Z,101704.36
2019-05-01T12:04:03.967Z,101715.08
2019-05-01T12:06:34.020Z,101713.90
2019-05-01T12:09:05.750Z,101714.16
2019-05-01T12:11:39.023Z,101714.23
2019-05-01T12:14:09.128Z,101716.50
2019-05-01T12:16:56.746Z,101715.15
2019-05-01T12:19:27.112Z,101716.73
2019-05-01T12:21:57.141Z,101720.05
2019-05-01T12:24:27.178Z,101710.45
2019-05-01T12:26:57.201Z,101712.59
2019-05-01T12:29:27.265Z,101714.38
2019-05-01T12:31:57.272Z,101711.16
2019-05-01T12:34:27.320Z,101697.08
2019-05-01T12:37:24.203Z,101711.83
2019-05-01T12:39:54.262Z,101707.97
2019-05-01T12:42:25.139Z,101712.59
2019-05-01T12:44:55.174Z,101707.27
2019-05-01T12:47:38.170Z,101716.40
2019-05-01T12:50:08.380Z,101721.16
2019-05-01T12:53:15.255Z,101714.11
2019-05-01T12:56:04.290Z,101709.20
2019-05-01T12:58:35.769Z,101706.02
2019-05-01T13:01:05.932Z,101702.31
2019-05-01T13:03:36.003Z,101702.62
2019-05-01T13:06:06.053Z,101705.13
2019-05-01T13:08:36.152Z,101703.88
2019-05-01T13:11:06.164Z,101701.09
2019-05-01T13:13:36.245Z,101698.86
2019-05-01T13:16:06.247Z,101705.08
2019-05-01T13:18:36.279Z,101705.13
2019-05-01T13:21:06.336Z,101711.51
2019-05-01T13:23:36.349Z,101704.49
2019-05-01T13:26:20.937Z,101705.59
2019-05-01T13:28:58.821Z,101706.64
2019-05-01T13:31:43.346Z,101701.67
2019-05-01T13:34:13.369Z,101702.38
2019-05-01T13:36:43.416Z,101696.11
2019-05-01T13:39:13.465Z,101706.84
2019-05-01T13:41:43.514Z,101701.48
2019-05-01T13:44:13.564Z,101703.47
2019-05-01T13:46:43.579Z,101700.90
2019-05-01T13:49:13.618Z,101702.41
2019-05-01T13:51:43.633Z,101703.89
2019-05-01T13:54:13.692Z,101694.29
2019-05-01T13:56:43.837Z,101692.27
2019-05-01T13:59:15.191Z,101696.91
2019-05-01T14:01:45.222Z,101698.12
2019-05-01T14:04:15.939Z,101693.58
2019-05-01T14:06:45.949Z,101689.02
2019-05-01T14:09:22.221Z,101690.22
2019-05-01T14:11:52.256Z,101683.13
2019-05-01T14:14:22.311Z,101682.80
2019-05-01T14:16:52.327Z,101679.77
2019-05-01T14:19:22.391Z,101677.08
2019-05-01T14:22:14.777Z,101689.17
2019-05-01T14:24:48.778Z,101691.23
2019-05-01T14:27:18.800Z,101686.27
2019-05-01T14:29:48.841Z,101692.67
2019-05-01T14:32:18.869Z,101694.05
2019-05-01T14:34:48.929Z,101687.05
2019-05-01T14:37:29.066Z,101694.09
2019-05-01T14:39:50.688Z,101686.25
2019-05-01T14:42:20.732Z,101687.63
2019-05-01T14:44:50.911Z,101690.47
2019-05-01T14:47:20.897Z,101687.11
2019-05-01T14:49:50.962Z,101684.95
2019-05-01T14:52:21.027Z,101680.94
2019-05-01T14:54:51.040Z,101680.61
2019-05-01T14:57:21.168Z,101679.27
2019-05-01T14:59:51.224Z,101672.05
2019-05-01T15:02:21.330Z,101685.13
2019-05-01T15:04:51.381Z,101679.44
2019-05-01T15:07:21.414Z,101678.09
2019-05-01T15:09:51.533Z,101677.42
2019-05-01T15:12:21.548Z,101677.08
2019-05-01T15:15:08.566Z,101679.38
2019-05-01T15:17:52.831Z,101681.06
2019-05-01T15:20:22.882Z,101678.22
2019-05-01T15:22:52.984Z,101686.45
2019-05-01T15:25:23.033Z,101686.45
2019-05-01T15:27:53.059Z,101686.94
2019-05-01T15:30:23.112Z,101682.09
2019-05-01T15:32:53.126Z,101693.69
2019-05-01T15:35:23.176Z,101690.48
2019-05-01T15:37:56.884Z,101687.97
2019-05-01T15:40:51.090Z,101693.84
2019-05-01T15:43:31.543Z,101693.34
2019-05-01T15:46:01.595Z,101691.84
2019-05-01T15:48:31.627Z,101695.20
2019-05-01T15:51:01.666Z,101698.71
2019-05-01T15:53:31.680Z,101691.52
2019-05-01T15:56:01.733Z,101693.34
2019-05-01T15:58:32.632Z,101688.30
2019-05-01T16:01:02.684Z,101684.45
2019-05-01T16:03:32.778Z,101689.84
2019-05-01T16:06:02.828Z,101689.16
2019-05-01T16:08:32.859Z,101691.02
2019-05-01T16:11:12.718Z,101692.02
2019-05-01T16:13:42.740Z,101696.03
2019-05-01T16:16:12.785Z,101680.77
2019-05-01T16:18:43.785Z,101684.48
2019-05-01T16:21:13.852Z,101686.80
2019-05-01T16:23:43.876Z,101692.16
2019-05-01T16:26:13.904Z,101692.16
2019-05-01T16:28:43.969Z,101690.41
2019-05-01T16:31:13.977Z,101693.08
2019-05-01T16:33:44.018Z,101694.39
2019-05-01T16:36:14.053Z,101697.41
2019-05-01T16:39:03.790Z,101699.09
2019-05-01T16:41:34.209Z,101694.58
2019-05-01T16:44:04.229Z,101694.41
2019-05-01T16:46:34.269Z,101683.86
2019-05-01T16:49:04.335Z,101692.69
2019-05-01T16:51:37.070Z,101697.70
2019-05-01T16:54:07.466Z,101685.08
2019-05-01T16:56:37.499Z,101694.79
2019-05-01T16:59:07.545Z,101696.47
2019-05-01T17:01:50.540Z,101696.33
2019-05-01T17:04:38.283Z,101695.63
2019-05-01T17:07:31.125Z,101691.96
2019-05-01T17:10:18.413Z,101692.65
2019-05-01T17:12:50.341Z,101695.33
2019-05-01T17:15:36.573Z,101701.98
2019-05-01T17:18:06.636Z,101693.61
2019-05-01T17:20:36.671Z,101697.31
2019-05-01T17:23:06.820Z,101694.98
2019-05-01T17:25:37.789Z,101696.97
2019-05-01T17:28:09.285Z,101699.16
2019-05-01T17:30:41.044Z,101690.62
2019-05-01T17:33:20.157Z,101678.56
2019-05-01T17:35:43.253Z,101689.20
2019-05-01T17:38:13.404Z,101688.82
2019-05-01T17:40:47.416Z,101684.45
2019-05-01T17:43:15.467Z,101686.12
2019-05-01T17:45:45.525Z,101691.64
2019-05-01T17:48:15.672Z,101681.05
2019-05-01T17:50:45.692Z,101691.90
2019-05-01T17:53:15.735Z,101680.11
2019-05-01T17:55:45.775Z,101691.31
2019-05-01T17:58:15.818Z,101689.41
2019-05-01T18:01:27.955Z,101688.06
2019-05-01T18:04:22.544Z,101691.67
2019-05-01T18:06:52.918Z,101698.50
2019-05-01T18:09:22.949Z,101698.13
2019-05-01T18:11:53.734Z,101691.33
2019-05-01T18:14:23.886Z,101699.98
2019-05-01T18:16:53.957Z,101696.31
2019-05-01T18:19:24.015Z,101702.16
2019-05-01T18:22:15.996Z,101706.66
2019-05-01T18:25:03.617Z,101705.10
2019-05-01T18:27:54.508Z,101715.23
2019-05-01T18:30:25.244Z,101718.86
2019-05-01T18:32:55.268Z,101717.33
2019-05-01T18:35:25.328Z,101719.88
2019-05-01T18:38:20.330Z,101712.13
2019-05-01T18:40:53.959Z,101716.07
2019-05-01T18:43:26.932Z,101710.20
2019-05-01T18:45:56.965Z,101710.31
2019-05-01T18:48:27.023Z,101712.64
2019-05-01T18:50:57.104Z,101711.55
2019-05-01T18:53:27.166Z,101709.38
2019-05-01T18:56:01.367Z,101716.19
2019-05-01T18:58:28.956Z,101718.13
2019-05-01T19:00:59.225Z,101729.06
2019-05-01T19:03:29.990Z,101722.27
2019-05-01T19:06:00.103Z,101715.35
2019-05-01T19:08:30.136Z,101717.98
2019-05-01T19:11:11.859Z,101722.99
2019-05-01T19:13:32.107Z,101716.77
2019-05-01T19:16:03.428Z,101726.73
2019-05-01T19:18:34.666Z,101720.86
2019-05-01T19:21:04.703Z,101723.94
2019-05-01T19:23:36.247Z,101726.33
2019-05-01T19:26:06.895Z,101726.95
2019-05-01T19:28:37.352Z,101725.93
2019-05-01T19:31:07.440Z,101734.70
2019-05-01T19:33:37.500Z,101736.66
2019-05-01T19:36:08.563Z,101730.16
2019-05-01T19:38:39.271Z,101736.75
2019-05-01T19:41:13.934Z,101730.38
2019-05-01T19:43:42.142Z,101737.23
2019-05-01T19:46:12.512Z,101738.73
2019-05-01T19:48:45.487Z,101741.19
2019-05-01T19:51:19.136Z,101740.07
2019-05-01T19:53:51.771Z,101735.36
2019-05-01T19:56:21.400Z,101739.36
2019-05-01T19:58:50.642Z,101737.77
2019-05-01T20:01:20.730Z,101741.35
2019-05-01T20:03:50.748Z,101736.02
2019-05-01T20:06:20.798Z,101744.09
2019-05-01T20:08:50.925Z,101747.52
2019-05-01T20:11:21.056Z,101745.91
2019-05-01T20:13:51.101Z,101748.72
2019-05-01T20:16:21.829Z,101748.72
2019-05-01T20:18:51.879Z,101747.39
2019-05-01T20:21:21.919Z,101747.39
2019-05-01T20:23:51.983Z,101760.80
2019-05-01T20:26:22.029Z,101760.80
2019-05-01T20:28:52.062Z,101745.69
2019-05-01T20:31:23.414Z,101756.44
2019-05-01T20:33:53.824Z,101755.67
2019-05-01T20:36:23.919Z,101757.83
2019-05-01T20:38:53.952Z,101768.36
2019-05-01T20:41:24.002Z,101758.45
2019-05-01T20:43:54.116Z,101762.95
2019-05-01T20:46:26.094Z,101760.81
2019-05-01T20:49:00.901Z,101751.95
2019-05-01T20:51:28.669Z,101757.47
2019-05-01T20:53:58.790Z,101756.69
2019-05-01T20:56:36.715Z,101763.17
2019-05-01T20:59:06.769Z,101766.71
2019-05-01T21:01:36.885Z,101763.27
2019-05-01T21:04:25.889Z,101763.45
2019-05-01T21:07:29.824Z,101759.03
2019-05-01T21:10:00.800Z,101756.01
2019-05-01T21:12:30.901Z,101754.14
2019-05-01T21:15:01.036Z,101752.86
2019-05-01T21:17:31.190Z,101756.98
2019-05-01T21:20:01.221Z,101761.56
2019-05-01T21:22:33.295Z,101758.13
2019-05-01T21:25:04.649Z,101751.16
2019-05-01T21:27:34.842Z,101752.81
2019-05-01T21:30:05.329Z,101751.09
2019-05-01T21:32:36.470Z,101753.76
2019-05-01T21:35:06.513Z,101754.86
2019-05-01T21:37:36.553Z,101751.53
2019-05-01T21:40:07.152Z,101756.06
2019-05-01T21:42:37.184Z,101750.02
2019-05-01T21:45:07.283Z,101751.77
2019-05-01T21:47:37.373Z,101752.98
2019-05-01T21:50:07.424Z,101755.81
2019-05-01T21:52:37.493Z,101750.06
2019-05-01T21:55:07.541Z,101758.69
2019-05-01T21:57:40.621Z,101744.11
2019-05-01T22:00:09.341Z,101749.06
2019-05-01T22:02:41.595Z,101750.52
2019-05-01T22:05:12.732Z,101742.55
2019-05-01T22:07:42.772Z,101741.75
2019-05-01T22:10:12.788Z,101747.31
2019-05-01T22:12:44.002Z,101753.84
2019-05-01T22:15:25.313Z,101758.22
2019-05-01T22:18:16.172Z,101756.17
2019-05-01T22:20:51.749Z,101755.93
2019-05-01T22:23:23.316Z,101752.70
2019-05-01T22:25:55.783Z,101746.42
2019-05-01T22:28:31.698Z,101745.58
2019-05-01T22:31:35.814Z,101741.47
2019-05-01T22:34:30.874Z,101735.27
2019-05-01T22:37:00.908Z,101743.16
2019-05-01T22:39:32.636Z,101728.08
2019-05-01T22:42:02.673Z,101721.95
2019-05-01T22:44:32.716Z,101727.09
2019-05-01T22:47:02.763Z,101727.41
2019-05-01T22:49:33.792Z,101718.33
2019-05-01T22:52:03.833Z,101717.36
2019-05-01T22:54:33.964Z,101715.97
2019-05-01T22:57:03.997Z,101712.70
2019-05-01T22:59:34.045Z,101715.84
2019-05-01T23:02:11.293Z,101712.22
2019-05-01T23:04:41.325Z,101710.52
2019-05-01T23:07:11.793Z,101706.89
2019-05-01T23:09:43.155Z,101704.72
2019-05-01T23:12:13.230Z,101701.34
2019-05-01T23:14:43.265Z,101699.70
2019-05-01T23:17:20.436Z,101698.98
2019-05-01T23:19:53.338Z,101695.17
2019-05-01T23:22:24.170Z,101694.81
2019-05-01T23:24:54.201Z,101696.99
2019-05-01T23:27:28.941Z,101690.34
2019-05-01T23:29:56.953Z,101695.82
2019-05-01T23:32:27.014Z,101704.70
2019-05-01T23:34:57.058Z,101699.17
2019-05-01T23:37:27.124Z,101693.00
2019-05-01T23:39:57.147Z,101701.48
2019-05-01T23:42:27.175Z,101691.64
2019-05-01T23:44:57.298Z,101696.99
2019-05-01T23:47:27.365Z,101696.38
2019-05-01T23:49:57.392Z,101704.41
2019-05-01T23:52:27.415Z,101701.88
2019-05-01T23:54:57.460Z,101703.03
2019-05-01T23:57:27.493Z,101705.74
2019-05-01T23:59:57.565Z,101701.65
